createdAt,value
2018-07-26T00:01:44.986Z,19.42
2018-07-26T00:04:16.108Z,19.54
2018-07-26T00:06:47.143Z,19.40
2018-07-26T00:09:18.246Z,19.50
2018-07-26T00:11:49.161Z,19.50
2018-07-26T00:14:20.619Z,19.48
2018-07-26T00:16:51.609Z,19.53
2018-07-26T00:19:23.196Z,19.44
2018-07-26T00:21:54.357Z,19.39
2018-07-26T00:24:25.505Z,19.15
2018-07-26T00:26:56.619Z,19.17
2018-07-26T00:29:27.640Z,18.96
2018-07-26T00:31:58.793Z,19.07
2018-07-26T00:34:29.986Z,18.92
2018-07-26T00:37:00.956Z,19.00
2018-07-26T00:39:32.419Z,18.99
2018-07-26T00:42:04.255Z,19.11
2018-07-26T00:44:35.271Z,18.93
2018-07-26T00:47:06.283Z,18.99
2018-07-26T00:49:37.696Z,19.00
2018-07-26T00:52:08.660Z,18.84
2018-07-26T00:54:40.143Z,18.38
2018-07-26T00:57:11.082Z,18.66
2018-07-26T00:59:42.237Z,18.73
2018-07-26T01:02:13.243Z,18.84
2018-07-26T01:04:44.504Z,18.76
2018-07-26T01:07:15.492Z,18.86
2018-07-26T01:09:46.606Z,18.92
2018-07-26T01:12:17.518Z,18.73
2018-07-26T01:14:48.568Z,18.59
2018-07-26T01:17:19.830Z,18.67
2018-07-26T01:19:51.191Z,18.82
2018-07-26T01:22:22.238Z,18.68
2018-07-26T01:24:53.294Z,18.68
2018-07-26T01:27:24.386Z,18.58
2018-07-26T01:29:55.354Z,18.45
2018-07-26T01:32:26.296Z,18.31
2018-07-26T01:34:57.585Z,18.27
2018-07-26T01:37:28.497Z,18.32
2018-07-26T01:39:59.935Z,18.18
2018-07-26T01:42:35.545Z,18.27
2018-07-26T01:45:06.495Z,18.34
2018-07-26T01:47:37.491Z,18.11
2018-07-26T01:50:09.004Z,18.11
2018-07-26T01:52:41.113Z,18.05
2018-07-26T01:55:13.389Z,18.23
2018-07-26T01:57:45.998Z,18.17
2018-07-26T02:00:17.482Z,17.98
2018-07-26T02:05:51.567Z,17.56
2018-07-26T02:08:22.445Z,17.93
2018-07-26T02:10:53.335Z,17.93
2018-07-26T02:13:24.478Z,18.19
2018-07-26T02:15:55.519Z,18.16
2018-07-26T02:18:26.529Z,17.91
2018-07-26T02:20:57.572Z,17.85
2018-07-26T02:23:28.915Z,17.94
2018-07-26T02:26:00.079Z,17.79
2018-07-26T02:28:31.691Z,17.79
2018-07-26T02:31:02.876Z,17.79
2018-07-26T02:33:33.963Z,17.82
2018-07-26T02:36:05.125Z,17.54
2018-07-26T02:38:36.325Z,17.81
2018-07-26T02:41:07.420Z,17.61
2018-07-26T02:43:38.565Z,17.79
2018-07-26T02:46:09.613Z,17.58
2018-07-26T02:48:40.576Z,17.55
2018-07-26T02:51:12.011Z,17.53
2018-07-26T02:53:43.069Z,17.17
2018-07-26T02:56:14.073Z,17.21
2018-07-26T02:58:45.160Z,17.21
2018-07-26T03:01:16.097Z,17.39
2018-07-26T03:03:47.338Z,17.43
2018-07-26T03:06:18.620Z,17.57
2018-07-26T03:08:49.588Z,17.46
2018-07-26T03:11:20.773Z,17.45
2018-07-26T03:13:51.928Z,17.35
2018-07-26T03:16:23.043Z,17.24
2018-07-26T03:18:54.168Z,17.23
2018-07-26T03:21:25.212Z,17.10
2018-07-26T03:23:56.239Z,17.12
2018-07-26T03:26:27.203Z,17.00
2018-07-26T03:28:58.155Z,17.03
2018-07-26T03:31:29.296Z,16.86
2018-07-26T03:34:00.731Z,17.09
2018-07-26T03:36:31.880Z,17.18
2018-07-26T03:39:03.061Z,17.12
2018-07-26T03:41:34.254Z,17.17
2018-07-26T03:44:05.297Z,17.09
2018-07-26T03:46:36.359Z,16.99
2018-07-26T03:49:07.785Z,16.96
2018-07-26T03:51:38.729Z,16.83
2018-07-26T03:54:09.845Z,17.03
2018-07-26T03:56:40.801Z,17.07
2018-07-26T03:59:11.761Z,16.89
2018-07-26T04:01:42.796Z,16.94
2018-07-26T04:04:14.311Z,16.85
2018-07-26T04:06:45.463Z,17.19
2018-07-26T04:09:16.852Z,17.23
2018-07-26T04:11:48.087Z,17.30
2018-07-26T04:14:19.016Z,17.38
2018-07-26T04:16:50.122Z,17.40
2018-07-26T04:19:21.155Z,17.50
2018-07-26T04:21:52.806Z,17.50
2018-07-26T04:24:23.973Z,17.42
2018-07-26T04:26:54.947Z,17.50
2018-07-26T04:29:26.153Z,17.69
2018-07-26T04:31:57.924Z,17.65
2018-07-26T04:34:30.094Z,17.80
2018-07-26T04:37:03.104Z,17.85
2018-07-26T04:39:34.171Z,17.82
2018-07-26T04:42:06.497Z,17.84
2018-07-26T04:44:37.697Z,17.89
2018-07-26T04:47:08.904Z,17.93
2018-07-26T04:49:39.876Z,17.72
2018-07-26T04:52:10.880Z,17.57
2018-07-26T04:54:42.115Z,17.82
2018-07-26T04:57:13.356Z,17.82
2018-07-26T04:59:44.510Z,18.09
2018-07-26T05:02:15.552Z,18.23
2018-07-26T05:04:46.500Z,18.44
2018-07-26T05:07:18.024Z,18.53
2018-07-26T05:09:49.329Z,18.56
2018-07-26T05:12:20.263Z,18.44
2018-07-26T05:14:51.338Z,18.76
2018-07-26T05:17:22.606Z,18.73
2018-07-26T05:19:53.520Z,18.43
2018-07-26T05:22:24.632Z,18.28
2018-07-26T05:24:55.602Z,19.11
2018-07-26T05:27:26.947Z,19.00
2018-07-26T05:29:58.770Z,19.14
2018-07-26T05:32:30.675Z,19.36
2018-07-26T05:35:02.232Z,19.38
2018-07-26T05:37:34.444Z,19.43
2018-07-26T05:40:07.277Z,19.46
2018-07-26T05:42:39.747Z,19.51
2018-07-26T05:45:12.613Z,19.51
2018-07-26T05:47:43.531Z,19.67
2018-07-26T05:50:18.988Z,19.95
2018-07-26T05:52:57.335Z,20.21
2018-07-26T05:58:15.523Z,20.35
2018-07-26T06:00:50.929Z,20.36
2018-07-26T06:03:24.023Z,20.20
2018-07-26T06:05:55.055Z,20.66
2018-07-26T06:08:25.990Z,20.69
2018-07-26T06:10:56.914Z,20.62
2018-07-26T06:13:45.639Z,20.45
2018-07-26T06:16:20.492Z,20.76
2018-07-26T06:18:51.991Z,20.92
2018-07-26T06:21:37.866Z,21.33
2018-07-26T06:24:11.194Z,21.42
2018-07-26T06:26:42.322Z,21.83
2018-07-26T06:29:23.517Z,22.10
2018-07-26T06:32:10.452Z,22.32
2018-07-26T06:34:43.480Z,22.72
2018-07-26T06:37:18.848Z,23.07
2018-07-26T06:40:04.086Z,23.19
2018-07-26T06:42:51.008Z,23.44
2018-07-26T06:45:22.840Z,23.55
2018-07-26T06:47:54.350Z,23.78
2018-07-26T06:50:57.123Z,24.07
2018-07-26T06:53:43.831Z,24.37
2018-07-26T06:56:14.799Z,24.53
2018-07-26T06:58:57.801Z,24.56
2018-07-26T07:01:28.696Z,24.71
2018-07-26T07:04:00.140Z,24.81
2018-07-26T07:06:32.245Z,24.91
2018-07-26T07:09:07.415Z,24.70
2018-07-26T07:11:40.365Z,24.37
2018-07-26T07:14:12.186Z,24.45
2018-07-26T07:16:45.234Z,24.92
2018-07-26T07:19:16.680Z,25.13
2018-07-26T07:21:48.584Z,25.27
2018-07-26T07:24:21.623Z,25.06
2018-07-26T07:26:54.047Z,25.21
2018-07-26T07:29:25.043Z,24.95
2018-07-26T07:32:03.374Z,25.06
2018-07-26T07:34:34.763Z,25.19
2018-07-26T07:37:06.015Z,25.21
2018-07-26T07:39:39.120Z,25.24
2018-07-26T07:42:17.906Z,25.21
2018-07-26T07:45:08.181Z,25.13
2018-07-26T07:47:53.192Z,25.32
2018-07-26T07:50:51.724Z,25.15
2018-07-26T07:53:46.041Z,25.40
2018-07-26T07:56:43.461Z,25.45
2018-07-26T07:59:17.933Z,25.58
2018-07-26T08:01:50.489Z,25.78
2018-07-26T08:04:22.964Z,26.03
2018-07-26T08:07:01.028Z,26.32
2018-07-26T08:09:40.866Z,26.61
2018-07-26T08:12:14.807Z,26.71
2018-07-26T08:14:48.922Z,26.65
2018-07-26T08:17:32.945Z,26.63
2018-07-26T08:20:07.850Z,26.91
2018-07-26T08:22:40.569Z,27.04
2018-07-26T08:25:21.443Z,27.00
2018-07-26T08:27:59.739Z,27.06
2018-07-26T08:30:33.682Z,26.85
2018-07-26T08:33:18.372Z,26.99
2018-07-26T08:36:19.900Z,27.02
2018-07-26T08:41:59.689Z,26.78
2018-07-26T08:44:31.298Z,26.75
2018-07-26T08:47:02.384Z,26.64
2018-07-26T08:49:34.008Z,26.89
2018-07-26T08:52:05.902Z,27.05
2018-07-26T08:54:37.080Z,27.24
2018-07-26T08:57:08.666Z,27.46
2018-07-26T08:59:41.702Z,27.52
2018-07-26T09:02:12.865Z,27.39
2018-07-26T09:04:43.975Z,27.27
2018-07-26T09:07:17.211Z,27.45
2018-07-26T09:09:48.265Z,27.76
2018-07-26T09:12:33.612Z,27.85
2018-07-26T09:15:16.480Z,27.43
2018-07-26T09:17:57.420Z,27.63
2018-07-26T09:20:36.908Z,27.67
2018-07-26T09:23:11.747Z,27.37
2018-07-26T09:25:43.572Z,26.94
2018-07-26T09:28:14.927Z,26.84
2018-07-26T09:30:46.284Z,27.08
2018-07-26T09:33:18.953Z,27.64
2018-07-26T09:35:53.798Z,28.03
2018-07-26T09:38:28.702Z,27.80
2018-07-26T09:41:01.017Z,27.63
2018-07-26T09:43:32.361Z,27.92
2018-07-26T09:46:03.307Z,27.99
2018-07-26T09:48:36.241Z,27.94
2018-07-26T09:51:11.359Z,28.08
2018-07-26T09:53:51.503Z,28.17
2018-07-26T09:56:24.418Z,28.19
2018-07-26T09:58:57.872Z,28.55
2018-07-26T10:01:30.221Z,27.89
2018-07-26T10:04:04.825Z,27.44
2018-07-26T10:06:35.881Z,27.59
2018-07-26T10:09:14.560Z,28.21
2018-07-26T10:11:46.290Z,28.20
2018-07-26T10:14:17.480Z,27.87
2018-07-26T10:16:48.523Z,27.60
2018-07-26T10:19:20.129Z,27.97
2018-07-26T10:21:51.051Z,27.71
2018-07-26T10:24:22.435Z,28.15
2018-07-26T10:26:55.591Z,28.59
2018-07-26T10:29:26.702Z,28.41
2018-07-26T10:31:58.242Z,28.58
2018-07-26T10:34:35.409Z,28.52
2018-07-26T10:37:06.812Z,28.83
2018-07-26T10:39:37.829Z,28.72
2018-07-26T10:42:09.922Z,28.64
2018-07-26T10:44:41.775Z,28.60
2018-07-26T10:47:24.450Z,28.41
2018-07-26T10:50:19.030Z,28.42
2018-07-26T10:56:26.495Z,27.93
2018-07-26T10:58:58.275Z,28.50
2018-07-26T11:01:29.366Z,28.74
2018-07-26T11:04:00.984Z,28.85
2018-07-26T11:06:39.825Z,28.33
2018-07-26T11:09:13.402Z,28.22
2018-07-26T11:11:46.161Z,28.17
2018-07-26T11:14:18.891Z,27.93
2018-07-26T11:16:50.167Z,28.37
2018-07-26T11:19:27.809Z,28.63
2018-07-26T11:21:59.028Z,28.36
2018-07-26T11:24:32.343Z,28.30
2018-07-26T11:27:17.163Z,28.13
2018-07-26T11:29:50.011Z,27.79
2018-07-26T11:32:22.553Z,27.97
2018-07-26T11:34:54.431Z,28.63
2018-07-26T11:37:34.201Z,28.52
2018-07-26T11:40:09.861Z,28.38
2018-07-26T11:42:43.276Z,28.65
2018-07-26T11:45:15.464Z,28.73
2018-07-26T11:47:46.647Z,28.64
2018-07-26T11:50:17.640Z,29.01
2018-07-26T11:52:51.877Z,28.81
2018-07-26T11:55:28.920Z,29.11
2018-07-26T11:58:02.789Z,29.20
2018-07-26T12:00:48.649Z,29.41
2018-07-26T12:03:25.953Z,28.80
2018-07-26T12:05:57.073Z,28.43
2018-07-26T12:08:33.229Z,28.33
2018-07-26T12:11:11.556Z,28.49
2018-07-26T12:13:46.641Z,28.77
2018-07-26T12:16:19.768Z,29.12
2018-07-26T12:18:52.126Z,29.38
2018-07-26T12:21:24.717Z,29.43
2018-07-26T12:24:01.770Z,29.60
2018-07-26T12:26:39.928Z,29.26
2018-07-26T12:29:11.086Z,28.87
2018-07-26T12:31:42.265Z,28.72
2018-07-26T12:34:13.423Z,29.20
2018-07-26T12:36:50.475Z,29.15
2018-07-26T12:39:33.095Z,29.05
2018-07-26T12:42:05.166Z,28.90
2018-07-26T12:44:36.571Z,28.89
2018-07-26T12:47:13.928Z,29.21
2018-07-26T12:49:51.571Z,29.04
2018-07-26T12:52:32.439Z,29.11
2018-07-26T12:55:09.909Z,29.39
2018-07-26T12:57:40.960Z,29.60
2018-07-26T13:00:21.565Z,29.42
2018-07-26T13:02:53.072Z,29.23
2018-07-26T13:05:24.553Z,28.80
2018-07-26T13:07:57.109Z,29.01
2018-07-26T13:10:29.599Z,29.24
2018-07-26T13:13:01.486Z,29.51
2018-07-26T13:15:33.699Z,29.87
2018-07-26T13:18:05.576Z,29.99
2018-07-26T13:20:37.605Z,30.06
2018-07-26T13:23:08.985Z,29.47
2018-07-26T13:25:40.063Z,29.50
2018-07-26T13:28:11.493Z,29.62
2018-07-26T13:30:42.543Z,29.46
2018-07-26T13:33:13.539Z,29.39
2018-07-26T13:35:44.579Z,29.86
2018-07-26T13:38:15.663Z,30.05
2018-07-26T13:40:47.310Z,30.12
2018-07-26T13:43:19.492Z,30.12
2018-07-26T13:45:50.758Z,30.40
2018-07-26T13:48:21.797Z,30.52
2018-07-26T13:50:52.894Z,30.54
2018-07-26T13:53:24.479Z,30.47
2018-07-26T13:55:55.622Z,30.10
2018-07-26T13:58:27.647Z,30.41
2018-07-26T14:00:59.213Z,30.39
2018-07-26T14:03:30.348Z,30.50
2018-07-26T14:06:04.967Z,30.48
2018-07-26T14:08:37.242Z,30.66
2018-07-26T14:11:08.233Z,30.53
2018-07-26T14:13:39.534Z,30.79
2018-07-26T14:16:11.077Z,30.74
2018-07-26T14:18:43.711Z,30.82
2018-07-26T14:21:14.751Z,30.60
2018-07-26T14:23:46.922Z,30.93
2018-07-26T14:26:18.039Z,30.61
2018-07-26T14:28:49.245Z,30.63
2018-07-26T14:31:22.504Z,30.80
2018-07-26T14:33:54.532Z,30.72
2018-07-26T14:36:25.660Z,30.96
2018-07-26T14:38:58.893Z,30.78
2018-07-26T14:41:32.343Z,30.89
2018-07-26T14:44:07.273Z,30.48
2018-07-26T14:46:58.083Z,30.67
2018-07-26T14:49:36.563Z,30.79
2018-07-26T14:52:20.324Z,30.78
2018-07-26T14:54:58.564Z,31.08
2018-07-26T15:00:21.759Z,30.92
2018-07-26T15:02:58.661Z,31.13
2018-07-26T15:05:35.625Z,30.89
2018-07-26T15:08:10.580Z,30.97
2018-07-26T15:10:43.917Z,30.92
2018-07-26T15:13:15.647Z,30.89
2018-07-26T15:15:48.139Z,30.78
2018-07-26T15:18:28.743Z,31.02
2018-07-26T15:21:00.340Z,30.90
2018-07-26T15:23:36.048Z,30.85
2018-07-26T15:26:07.612Z,30.92
2018-07-26T15:28:41.642Z,30.96
2018-07-26T15:31:18.175Z,30.95
2018-07-26T15:33:57.612Z,30.78
2018-07-26T15:36:30.635Z,30.54
2018-07-26T15:39:03.365Z,30.45
2018-07-26T15:41:35.684Z,30.54
2018-07-26T15:44:06.975Z,30.58
2018-07-26T15:46:37.815Z,30.26
2018-07-26T15:49:09.311Z,30.42
2018-07-26T15:51:53.494Z,30.68
2018-07-26T15:54:26.576Z,30.82
2018-07-26T15:56:57.651Z,30.58
2018-07-26T15:59:28.837Z,30.54
2018-07-26T16:02:00.293Z,30.34
2018-07-26T16:04:31.604Z,30.32
2018-07-26T16:07:03.494Z,30.14
2018-07-26T16:09:35.518Z,30.01
2018-07-26T16:12:06.693Z,30.25
2018-07-26T16:14:38.250Z,30.04
2018-07-26T16:17:09.363Z,29.88
2018-07-26T16:19:40.404Z,29.88
2018-07-26T16:22:11.358Z,29.77
2018-07-26T16:24:42.387Z,29.88
2018-07-26T16:27:13.542Z,30.04
2018-07-26T16:29:44.898Z,29.99
2018-07-26T16:32:16.124Z,29.95
2018-07-26T16:34:47.325Z,29.86
2018-07-26T16:37:19.124Z,29.75
2018-07-26T16:39:50.949Z,29.59
2018-07-26T16:42:22.162Z,29.63
2018-07-26T16:44:53.608Z,29.39
2018-07-26T16:47:24.980Z,29.54
2018-07-26T16:49:55.986Z,29.51
2018-07-26T16:52:27.775Z,29.46
2018-07-26T16:54:59.019Z,29.51
2018-07-26T16:57:30.974Z,29.52
2018-07-26T17:00:03.440Z,29.33
2018-07-26T17:02:36.293Z,29.27
2018-07-26T17:05:17.049Z,29.14
2018-07-26T17:07:57.730Z,28.96
2018-07-26T17:10:30.096Z,28.49
2018-07-26T17:13:02.809Z,28.77
2018-07-26T17:15:35.909Z,28.91
2018-07-26T17:18:07.930Z,28.93
2018-07-26T17:20:39.428Z,28.78
2018-07-26T17:23:11.106Z,28.78
2018-07-26T17:25:42.288Z,28.70
2018-07-26T17:28:13.369Z,28.80
2018-07-26T17:30:44.617Z,28.50
2018-07-26T17:33:15.583Z,28.17
2018-07-26T17:35:47.523Z,28.07
2018-07-26T17:38:18.722Z,28.08
2018-07-26T17:40:49.943Z,27.79
2018-07-26T17:43:20.932Z,27.92
2018-07-26T17:45:52.109Z,27.73
2018-07-26T17:48:23.287Z,27.79
2018-07-26T17:50:57.302Z,28.16
2018-07-26T17:53:35.033Z,28.29
2018-07-26T17:56:09.437Z,28.13
2018-07-26T17:58:43.772Z,28.08
2018-07-26T18:01:15.095Z,28.09
2018-07-26T18:03:46.276Z,28.10
2018-07-26T18:06:25.548Z,27.88
2018-07-26T18:08:58.238Z,27.82
2018-07-26T18:11:29.550Z,27.81
2018-07-26T18:14:00.710Z,27.71
2018-07-26T18:16:35.693Z,27.84
2018-07-26T18:19:07.490Z,27.59
2018-07-26T18:21:38.708Z,27.59
2018-07-26T18:24:10.287Z,27.57
2018-07-26T18:26:47.034Z,27.47
2018-07-26T18:29:19.345Z,27.50
2018-07-26T18:31:50.511Z,27.65
2018-07-26T18:34:22.566Z,27.55
2018-07-26T18:36:54.031Z,27.54
2018-07-26T18:39:27.082Z,27.48
2018-07-26T18:41:58.930Z,27.47
2018-07-26T18:44:31.057Z,27.50
2018-07-26T18:47:03.578Z,27.45
2018-07-26T18:49:36.133Z,27.43
2018-07-26T18:52:08.840Z,27.48
2018-07-26T18:54:41.301Z,27.30
2018-07-26T18:57:13.183Z,27.16
2018-07-26T18:59:45.275Z,26.94
2018-07-26T19:02:16.664Z,26.99
2018-07-26T19:04:47.592Z,26.99
2018-07-26T19:07:18.611Z,26.97
2018-07-26T19:09:49.593Z,26.81
2018-07-26T19:12:20.957Z,26.77
2018-07-26T19:14:52.870Z,26.78
2018-07-26T19:17:25.800Z,26.77
2018-07-26T19:19:57.583Z,26.58
2018-07-26T19:22:28.694Z,26.47
2018-07-26T19:25:00.260Z,26.38
2018-07-26T19:27:32.056Z,26.43
2018-07-26T19:30:04.180Z,26.42
2018-07-26T19:32:37.805Z,26.35
2018-07-26T19:35:14.912Z,26.45
2018-07-26T19:37:50.532Z,26.24
2018-07-26T19:40:22.959Z,26.22
2018-07-26T19:42:55.299Z,26.21
2018-07-26T19:45:28.446Z,26.00
2018-07-26T19:48:01.056Z,25.88
2018-07-26T19:50:32.503Z,25.77
2018-07-26T19:53:03.984Z,25.71
2018-07-26T19:55:35.371Z,25.71
2018-07-26T19:58:06.748Z,25.72
2018-07-26T20:00:37.739Z,25.66
2018-07-26T20:03:10.412Z,25.65
2018-07-26T20:05:48.220Z,25.70
2018-07-26T20:08:21.733Z,25.65
2018-07-26T20:10:52.977Z,25.63
2018-07-26T20:13:23.987Z,25.58
2018-07-26T20:15:55.269Z,25.64
2018-07-26T20:18:26.238Z,25.64
2018-07-26T20:20:57.451Z,25.57
2018-07-26T20:23:28.764Z,25.65
2018-07-26T20:26:00.073Z,25.59
2018-07-26T20:28:31.504Z,25.27
2018-07-26T20:31:03.100Z,25.09
2018-07-26T20:33:34.599Z,25.18
2018-07-26T20:36:08.076Z,25.37
2018-07-26T20:38:39.679Z,25.39
2018-07-26T20:41:11.418Z,25.16
2018-07-26T20:43:46.761Z,25.01
2018-07-26T20:46:18.441Z,24.64
2018-07-26T20:48:49.520Z,24.17
2018-07-26T20:51:22.601Z,23.80
2018-07-26T20:53:55.682Z,23.62
2018-07-26T20:56:26.860Z,23.49
2018-07-26T20:58:58.120Z,22.96
2018-07-26T21:01:29.700Z,22.88
2018-07-26T21:04:01.435Z,22.39
2018-07-26T21:06:42.067Z,22.25
2018-07-26T21:09:15.219Z,22.18
2018-07-26T21:11:46.737Z,22.42
2018-07-26T21:14:18.123Z,22.60
2018-07-26T21:16:52.677Z,22.39
2018-07-26T21:19:27.037Z,22.20
2018-07-26T21:22:01.167Z,21.97
2018-07-26T21:24:35.040Z,22.14
2018-07-26T21:27:06.283Z,22.16
2018-07-26T21:29:39.919Z,21.90
2018-07-26T21:32:11.705Z,21.93
2018-07-26T21:34:43.116Z,22.10
2018-07-26T21:37:17.564Z,22.17
2018-07-26T21:39:49.328Z,21.90
2018-07-26T21:42:20.259Z,21.77
2018-07-26T21:44:57.248Z,21.67
2018-07-26T21:47:39.455Z,21.59
2018-07-26T21:50:13.908Z,21.59
2018-07-26T21:52:46.688Z,21.56
2018-07-26T21:55:17.843Z,21.79
2018-07-26T21:57:50.701Z,21.53
2018-07-26T22:00:21.718Z,21.37
2018-07-26T22:02:55.186Z,21.44
2018-07-26T22:05:27.223Z,21.40
2018-07-26T22:07:59.006Z,21.36
2018-07-26T22:10:30.928Z,21.26
2018-07-26T22:13:03.540Z,21.26
2018-07-26T22:15:36.217Z,21.03
2018-07-26T22:18:08.996Z,20.98
2018-07-26T22:20:40.295Z,21.08
2018-07-26T22:23:13.166Z,21.17
2018-07-26T22:25:47.300Z,21.16
2018-07-26T22:28:19.205Z,20.71
2018-07-26T22:30:50.490Z,20.87
2018-07-26T22:33:21.626Z,21.14
2018-07-26T22:35:52.912Z,20.80
2018-07-26T22:38:23.923Z,20.54
2018-07-26T22:40:55.294Z,20.50
2018-07-26T22:43:26.389Z,20.51
2018-07-26T22:45:57.546Z,20.53
2018-07-26T22:48:28.711Z,20.77
2018-07-26T22:51:00.041Z,20.39
2018-07-26T22:53:31.576Z,20.31
2018-07-26T22:56:03.536Z,20.64
2018-07-26T22:58:34.674Z,20.76
2018-07-26T23:01:06.036Z,20.38
2018-07-26T23:03:37.205Z,20.27
2018-07-26T23:06:08.151Z,20.35
2018-07-26T23:08:39.201Z,20.49
2018-07-26T23:11:10.472Z,20.58
2018-07-26T23:13:41.791Z,20.52
2018-07-26T23:16:12.805Z,20.41
2018-07-26T23:18:44.124Z,20.13
2018-07-26T23:21:15.233Z,20.26
2018-07-26T23:23:50.330Z,20.28
2018-07-26T23:26:21.670Z,20.15
2018-07-26T23:28:53.120Z,20.07
2018-07-26T23:31:24.096Z,20.06
2018-07-26T23:33:55.109Z,19.96
2018-07-26T23:36:26.314Z,19.79
2018-07-26T23:38:57.497Z,19.88
2018-07-26T23:41:28.559Z,19.79
2018-07-26T23:43:59.706Z,19.75
2018-07-26T23:46:30.870Z,19.65
2018-07-26T23:49:02.568Z,19.73
2018-07-26T23:51:33.671Z,19.71
2018-07-26T23:54:05.195Z,19.62
2018-07-26T23:56:36.575Z,19.51
2018-07-26T23:59:08.126Z,19.26
